sensor_id;sensor_type;location;lat;lon;timestamp;P1;durP1;ratioP1;P2;durP2;ratioP2
7273;SDS011;3678;60.002;17.846;2022-09-23T00:02:04;2.40;;;2.20;;
7273;SDS011;3678;60.002;17.846;2022-09-23T00:04:32;5.23;;;2.10;;
7273;SDS011;3678;60.002;17.846;2022-09-23T00:07:00;3.57;;;2.20;;
7273;SDS011;3678;60.002;17.846;2022-09-23T00:09:27;6.07;;;2.07;;
7273;SDS011;3678;60.002;17.846;2022-09-23T00:11:54;3.13;;;2.47;;
7273;SDS011;3678;60.002;17.846;2022-09-23T00:14:21;2.80;;;2.40;;
7273;SDS011;3678;60.002;17.846;2022-09-23T00:16:49;4.53;;;2.33;;
7273;SDS011;3678;60.002;17.846;2022-09-23T00:19:16;3.47;;;2.17;;
7273;SDS011;3678;60.002;17.846;2022-09-23T00:21:44;3.67;;;2.00;;
7273;SDS011;3678;60.002;17.846;2022-09-23T00:24:11;2.77;;;2.50;;
7273;SDS011;3678;60.002;17.846;2022-09-23T00:26:39;3.37;;;2.30;;
7273;SDS011;3678;60.002;17.846;2022-09-23T00:29:07;4.10;;;2.40;;
7273;SDS011;3678;60.002;17.846;2022-09-23T00:31:34;3.23;;;2.30;;
7273;SDS011;3678;60.002;17.846;2022-09-23T00:34:01;3.60;;;2.40;;
7273;SDS011;3678;60.002;17.846;2022-09-23T00:36:28;2.57;;;2.23;;
7273;SDS011;3678;60.002;17.846;2022-09-23T00:38:57;2.27;;;2.00;;
7273;SDS011;3678;60.002;17.846;2022-09-23T00:41:24;3.17;;;2.50;;
7273;SDS011;3678;60.002;17.846;2022-09-23T00:43:53;3.27;;;2.10;;
7273;SDS011;3678;60.002;17.846;2022-09-23T00:46:21;2.70;;;2.10;;
7273;SDS011;3678;60.002;17.846;2022-09-23T00:48:49;2.17;;;1.97;;
7273;SDS011;3678;60.002;17.846;2022-09-23T00:51:19;3.90;;;2.10;;
7273;SDS011;3678;60.002;17.846;2022-09-23T00:53:48;2.97;;;1.80;;
7273;SDS011;3678;60.002;17.846;2022-09-23T00:56:18;3.57;;;2.00;;
7273;SDS011;3678;60.002;17.846;2022-09-23T00:58:46;2.80;;;2.17;;
7273;SDS011;3678;60.002;17.846;2022-09-23T01:01:13;5.77;;;2.00;;
7273;SDS011;3678;60.002;17.846;2022-09-23T01:03:40;4.53;;;2.47;;
7273;SDS011;3678;60.002;17.846;2022-09-23T01:06:09;2.83;;;2.00;;
7273;SDS011;3678;60.002;17.846;2022-09-23T01:08:37;3.30;;;1.90;;
7273;SDS011;3678;60.002;17.846;2022-09-23T01:11:08;3.30;;;2.10;;
7273;SDS011;3678;60.002;17.846;2022-09-23T01:13:39;3.90;;;2.10;;
7273;SDS011;3678;60.002;17.846;2022-09-23T01:16:10;4.93;;;2.20;;
7273;SDS011;3678;60.002;17.846;2022-09-23T01:18:40;2.03;;;1.83;;
7273;SDS011;3678;60.002;17.846;2022-09-23T01:26:44;3.00;;;2.30;;
7273;SDS011;3678;60.002;17.846;2022-09-23T01:29:21;2.77;;;2.50;;
7273;SDS011;3678;60.002;17.846;2022-09-23T01:31:54;4.07;;;2.60;;
7273;SDS011;3678;60.002;17.846;2022-09-23T01:34:25;3.03;;;2.00;;
7273;SDS011;3678;60.002;17.846;2022-09-23T01:36:59;4.23;;;2.20;;
7273;SDS011;3678;60.002;17.846;2022-09-23T01:39:33;3.70;;;2.63;;
7273;SDS011;3678;60.002;17.846;2022-09-23T01:42:02;2.40;;;2.10;;
7273;SDS011;3678;60.002;17.846;2022-09-23T01:44:31;2.97;;;2.60;;
7273;SDS011;3678;60.002;17.846;2022-09-23T01:47:05;3.50;;;2.40;;
7273;SDS011;3678;60.002;17.846;2022-09-23T01:49:40;9.97;;;2.90;;
7273;SDS011;3678;60.002;17.846;2022-09-23T01:52:10;6.30;;;2.33;;
7273;SDS011;3678;60.002;17.846;2022-09-23T01:54:42;4.50;;;2.27;;
7273;SDS011;3678;60.002;17.846;2022-09-23T01:57:15;2.50;;;2.30;;
7273;SDS011;3678;60.002;17.846;2022-09-23T01:59:44;2.83;;;2.07;;
7273;SDS011;3678;60.002;17.846;2022-09-23T02:02:15;5.47;;;2.58;;
7273;SDS011;3678;60.002;17.846;2022-09-23T02:04:44;2.97;;;2.33;;
7273;SDS011;3678;60.002;17.846;2022-09-23T02:07:13;3.43;;;2.23;;
7273;SDS011;3678;60.002;17.846;2022-09-23T02:09:45;3.53;;;2.27;;
7273;SDS011;3678;60.002;17.846;2022-09-23T02:12:15;2.87;;;2.10;;
7273;SDS011;3678;60.002;17.846;2022-09-23T02:14:45;3.93;;;2.30;;
7273;SDS011;3678;60.002;17.846;2022-09-23T02:17:16;3.53;;;2.23;;
7273;SDS011;3678;60.002;17.846;2022-09-23T02:19:47;4.43;;;2.33;;
7273;SDS011;3678;60.002;17.846;2022-09-23T02:22:15;3.70;;;2.50;;
7273;SDS011;3678;60.002;17.846;2022-09-23T02:24:44;3.47;;;2.70;;
7273;SDS011;3678;60.002;17.846;2022-09-23T02:27:14;5.47;;;3.10;;
7273;SDS011;3678;60.002;17.846;2022-09-23T02:29:45;4.00;;;2.50;;
7273;SDS011;3678;60.002;17.846;2022-09-23T02:32:17;5.80;;;3.30;;
7273;SDS011;3678;60.002;17.846;2022-09-23T02:34:48;3.97;;;3.17;;
7273;SDS011;3678;60.002;17.846;2022-09-23T02:37:22;2.90;;;2.60;;
7273;SDS011;3678;60.002;17.846;2022-09-23T02:39:54;3.70;;;3.07;;
7273;SDS011;3678;60.002;17.846;2022-09-23T02:42:23;3.43;;;2.83;;
7273;SDS011;3678;60.002;17.846;2022-09-23T02:44:52;2.60;;;2.13;;
7273;SDS011;3678;60.002;17.846;2022-09-23T02:47:21;6.83;;;2.77;;
7273;SDS011;3678;60.002;17.846;2022-09-23T02:49:50;3.50;;;2.37;;
7273;SDS011;3678;60.002;17.846;2022-09-23T02:52:20;3.60;;;2.60;;
7273;SDS011;3678;60.002;17.846;2022-09-23T02:54:48;4.33;;;2.47;;
7273;SDS011;3678;60.002;17.846;2022-09-23T02:57:16;4.53;;;3.03;;
7273;SDS011;3678;60.002;17.846;2022-09-23T02:59:43;4.20;;;2.60;;
7273;SDS011;3678;60.002;17.846;2022-09-23T03:02:13;4.28;;;3.17;;
7273;SDS011;3678;60.002;17.846;2022-09-23T03:04:48;3.63;;;2.67;;
7273;SDS011;3678;60.002;17.846;2022-09-23T03:07:19;4.50;;;2.40;;
7273;SDS011;3678;60.002;17.846;2022-09-23T03:09:49;3.63;;;2.33;;
7273;SDS011;3678;60.002;17.846;2022-09-23T03:12:19;5.97;;;2.30;;
7273;SDS011;3678;60.002;17.846;2022-09-23T03:14:48;8.40;;;2.70;;
7273;SDS011;3678;60.002;17.846;2022-09-23T03:17:19;4.63;;;2.60;;
7273;SDS011;3678;60.002;17.846;2022-09-23T03:19:48;3.63;;;2.70;;
7273;SDS011;3678;60.002;17.846;2022-09-23T03:22:20;4.77;;;2.40;;
7273;SDS011;3678;60.002;17.846;2022-09-23T03:24:48;3.93;;;2.20;;
7273;SDS011;3678;60.002;17.846;2022-09-23T03:27:17;3.33;;;2.20;;
7273;SDS011;3678;60.002;17.846;2022-09-23T03:29:46;3.53;;;2.00;;
7273;SDS011;3678;60.002;17.846;2022-09-23T03:32:15;4.00;;;2.23;;
7273;SDS011;3678;60.002;17.846;2022-09-23T03:34:43;3.00;;;1.87;;
7273;SDS011;3678;60.002;17.846;2022-09-23T03:37:14;3.93;;;1.97;;
7273;SDS011;3678;60.002;17.846;2022-09-23T03:39:45;2.40;;;1.43;;
7273;SDS011;3678;60.002;17.846;2022-09-23T03:42:15;1.60;;;1.50;;
7273;SDS011;3678;60.002;17.846;2022-09-23T03:44:44;1.80;;;1.43;;
7273;SDS011;3678;60.002;17.846;2022-09-23T03:47:12;1.63;;;1.20;;
7273;SDS011;3678;60.002;17.846;2022-09-23T03:49:41;1.43;;;1.30;;
7273;SDS011;3678;60.002;17.846;2022-09-23T03:52:09;3.63;;;1.50;;
7273;SDS011;3678;60.002;17.846;2022-09-23T03:54:38;5.33;;;2.30;;
7273;SDS011;3678;60.002;17.846;2022-09-23T03:57:05;3.27;;;1.83;;
7273;SDS011;3678;60.002;17.846;2022-09-23T03:59:32;3.43;;;2.00;;
7273;SDS011;3678;60.002;17.846;2022-09-23T04:01:59;3.45;;;2.88;;
7273;SDS011;3678;60.002;17.846;2022-09-23T04:04:27;3.43;;;2.43;;
7273;SDS011;3678;60.002;17.846;2022-09-23T04:06:58;4.80;;;2.33;;
7273;SDS011;3678;60.002;17.846;2022-09-23T04:09:25;3.13;;;2.30;;
7273;SDS011;3678;60.002;17.846;2022-09-23T04:11:53;3.97;;;2.70;;
7273;SDS011;3678;60.002;17.846;2022-09-23T04:14:21;5.20;;;2.93;;
7273;SDS011;3678;60.002;17.846;2022-09-23T04:16:48;8.20;;;3.17;;
7273;SDS011;3678;60.002;17.846;2022-09-23T04:19:15;8.43;;;3.30;;
7273;SDS011;3678;60.002;17.846;2022-09-23T04:21:43;15.07;;;3.60;;
7273;SDS011;3678;60.002;17.846;2022-09-23T04:24:10;6.73;;;2.73;;
7273;SDS011;3678;60.002;17.846;2022-09-23T04:26:38;5.57;;;3.20;;
7273;SDS011;3678;60.002;17.846;2022-09-23T04:29:06;8.50;;;2.90;;
7273;SDS011;3678;60.002;17.846;2022-09-23T04:31:36;8.53;;;3.03;;
7273;SDS011;3678;60.002;17.846;2022-09-23T04:34:03;6.63;;;2.70;;
7273;SDS011;3678;60.002;17.846;2022-09-23T04:36:31;30.27;;;3.93;;
7273;SDS011;3678;60.002;17.846;2022-09-23T04:38:58;15.60;;;3.40;;
7273;SDS011;3678;60.002;17.846;2022-09-23T04:41:25;22.27;;;4.17;;
7273;SDS011;3678;60.002;17.846;2022-09-23T04:43:52;4.17;;;2.47;;
7273;SDS011;3678;60.002;17.846;2022-09-23T04:46:22;2.33;;;1.90;;
7273;SDS011;3678;60.002;17.846;2022-09-23T04:48:50;3.87;;;2.10;;
7273;SDS011;3678;60.002;17.846;2022-09-23T04:51:18;3.73;;;2.00;;
7273;SDS011;3678;60.002;17.846;2022-09-23T04:53:46;3.20;;;1.83;;
7273;SDS011;3678;60.002;17.846;2022-09-23T04:56:14;3.33;;;2.17;;
7273;SDS011;3678;60.002;17.846;2022-09-23T04:58:42;2.57;;;2.20;;
7273;SDS011;3678;60.002;17.846;2022-09-23T05:01:10;2.70;;;2.23;;
7273;SDS011;3678;60.002;17.846;2022-09-23T05:03:39;5.30;;;2.60;;
7273;SDS011;3678;60.002;17.846;2022-09-23T05:06:07;4.57;;;2.10;;
7273;SDS011;3678;60.002;17.846;2022-09-23T05:08:35;3.87;;;2.50;;
7273;SDS011;3678;60.002;17.846;2022-09-23T05:11:02;2.47;;;1.80;;
7273;SDS011;3678;60.002;17.846;2022-09-23T05:13:30;3.90;;;2.50;;
7273;SDS011;3678;60.002;17.846;2022-09-23T05:15:58;2.20;;;1.80;;
7273;SDS011;3678;60.002;17.846;2022-09-23T05:18:25;2.70;;;2.00;;
7273;SDS011;3678;60.002;17.846;2022-09-23T05:20:54;3.40;;;2.30;;
7273;SDS011;3678;60.002;17.846;2022-09-23T05:23:21;3.87;;;2.37;;
7273;SDS011;3678;60.002;17.846;2022-09-23T05:25:54;2.80;;;2.33;;
7273;SDS011;3678;60.002;17.846;2022-09-23T05:28:21;4.30;;;2.80;;
7273;SDS011;3678;60.002;17.846;2022-09-23T05:30:48;4.60;;;2.60;;
7273;SDS011;3678;60.002;17.846;2022-09-23T05:33:15;4.50;;;3.10;;
7273;SDS011;3678;60.002;17.846;2022-09-23T05:35:45;4.37;;;3.10;;
7273;SDS011;3678;60.002;17.846;2022-09-23T05:38:14;3.47;;;2.53;;
7273;SDS011;3678;60.002;17.846;2022-09-23T05:40:41;3.07;;;2.60;;
7273;SDS011;3678;60.002;17.846;2022-09-23T05:43:09;6.00;;;2.83;;
7273;SDS011;3678;60.002;17.846;2022-09-23T05:45:36;5.17;;;2.90;;
7273;SDS011;3678;60.002;17.846;2022-09-23T05:48:04;4.30;;;3.07;;
7273;SDS011;3678;60.002;17.846;2022-09-23T05:50:31;5.57;;;3.10;;
7273;SDS011;3678;60.002;17.846;2022-09-23T05:52:58;3.80;;;2.90;;
7273;SDS011;3678;60.002;17.846;2022-09-23T05:55:26;4.43;;;2.80;;
7273;SDS011;3678;60.002;17.846;2022-09-23T05:57:54;3.93;;;3.03;;
7273;SDS011;3678;60.002;17.846;2022-09-23T06:00:22;4.50;;;3.13;;
7273;SDS011;3678;60.002;17.846;2022-09-23T06:02:50;5.10;;;2.80;;
7273;SDS011;3678;60.002;17.846;2022-09-23T06:05:17;4.80;;;3.20;;
7273;SDS011;3678;60.002;17.846;2022-09-23T06:07:44;3.57;;;2.80;;
7273;SDS011;3678;60.002;17.846;2022-09-23T06:10:11;6.17;;;3.00;;
7273;SDS011;3678;60.002;17.846;2022-09-23T06:12:40;5.40;;;2.80;;
7273;SDS011;3678;60.002;17.846;2022-09-23T06:15:09;3.47;;;2.80;;
7273;SDS011;3678;60.002;17.846;2022-09-23T06:17:37;4.55;;;3.38;;
7273;SDS011;3678;60.002;17.846;2022-09-23T06:20:04;5.33;;;2.87;;
7273;SDS011;3678;60.002;17.846;2022-09-23T06:22:31;3.60;;;2.60;;
7273;SDS011;3678;60.002;17.846;2022-09-23T06:24:58;3.97;;;2.83;;
7273;SDS011;3678;60.002;17.846;2022-09-23T06:27:26;3.40;;;2.90;;
7273;SDS011;3678;60.002;17.846;2022-09-23T06:29:54;5.97;;;3.20;;
7273;SDS011;3678;60.002;17.846;2022-09-23T06:32:22;3.33;;;2.80;;
7273;SDS011;3678;60.002;17.846;2022-09-23T06:34:50;4.70;;;2.97;;
7273;SDS011;3678;60.002;17.846;2022-09-23T06:37:17;5.73;;;2.90;;
7273;SDS011;3678;60.002;17.846;2022-09-23T06:39:44;4.03;;;3.30;;
7273;SDS011;3678;60.002;17.846;2022-09-23T06:42:11;3.60;;;2.93;;
7273;SDS011;3678;60.002;17.846;2022-09-23T06:44:39;4.67;;;3.27;;
7273;SDS011;3678;60.002;17.846;2022-09-23T06:47:08;3.53;;;2.63;;
7273;SDS011;3678;60.002;17.846;2022-09-23T06:49:35;3.80;;;3.10;;
7273;SDS011;3678;60.002;17.846;2022-09-23T06:52:02;5.53;;;2.80;;
7273;SDS011;3678;60.002;17.846;2022-09-23T06:54:30;4.70;;;3.07;;
7273;SDS011;3678;60.002;17.846;2022-09-23T06:56:57;5.67;;;3.53;;
7273;SDS011;3678;60.002;17.846;2022-09-23T06:59:24;4.10;;;2.90;;
7273;SDS011;3678;60.002;17.846;2022-09-23T07:01:51;5.43;;;3.20;;
7273;SDS011;3678;60.002;17.846;2022-09-23T07:04:20;5.27;;;3.20;;
7273;SDS011;3678;60.002;17.846;2022-09-23T07:06:47;4.73;;;2.77;;
7273;SDS011;3678;60.002;17.846;2022-09-23T07:09:14;4.37;;;3.00;;
7273;SDS011;3678;60.002;17.846;2022-09-23T07:11:42;8.60;;;3.40;;
7273;SDS011;3678;60.002;17.846;2022-09-23T07:14:09;6.00;;;3.10;;
7273;SDS011;3678;60.002;17.846;2022-09-23T07:16:36;4.87;;;3.53;;
7273;SDS011;3678;60.002;17.846;2022-09-23T07:19:03;5.47;;;3.30;;
7273;SDS011;3678;60.002;17.846;2022-09-23T07:21:32;7.27;;;3.30;;
7273;SDS011;3678;60.002;17.846;2022-09-23T07:23:59;5.07;;;3.07;;
7273;SDS011;3678;60.002;17.846;2022-09-23T07:26:26;4.20;;;2.83;;
7273;SDS011;3678;60.002;17.846;2022-09-23T07:28:55;5.27;;;3.10;;
7273;SDS011;3678;60.002;17.846;2022-09-23T07:31:28;4.47;;;3.30;;
7273;SDS011;3678;60.002;17.846;2022-09-23T07:33:56;5.30;;;3.03;;
7273;SDS011;3678;60.002;17.846;2022-09-23T07:36:25;5.07;;;3.53;;
7273;SDS011;3678;60.002;17.846;2022-09-23T07:38:53;5.20;;;2.67;;
7273;SDS011;3678;60.002;17.846;2022-09-23T07:41:27;3.47;;;2.37;;
7273;SDS011;3678;60.002;17.846;2022-09-23T07:43:55;5.67;;;3.00;;
7273;SDS011;3678;60.002;17.846;2022-09-23T07:46:23;4.43;;;2.73;;
7273;SDS011;3678;60.002;17.846;2022-09-23T07:48:51;5.07;;;3.13;;
7273;SDS011;3678;60.002;17.846;2022-09-23T07:51:20;6.53;;;2.90;;
7273;SDS011;3678;60.002;17.846;2022-09-23T07:53:48;5.07;;;2.80;;
7273;SDS011;3678;60.002;17.846;2022-09-23T07:56:17;4.93;;;2.80;;
7273;SDS011;3678;60.002;17.846;2022-09-23T07:58:44;5.13;;;2.70;;
7273;SDS011;3678;60.002;17.846;2022-09-23T08:01:24;3.93;;;2.70;;
7273;SDS011;3678;60.002;17.846;2022-09-23T08:03:51;5.07;;;2.30;;
7273;SDS011;3678;60.002;17.846;2022-09-23T08:06:18;4.03;;;2.50;;
7273;SDS011;3678;60.002;17.846;2022-09-23T08:08:45;5.87;;;2.17;;
7273;SDS011;3678;60.002;17.846;2022-09-23T08:11:13;4.30;;;2.10;;
7273;SDS011;3678;60.002;17.846;2022-09-23T08:13:41;2.73;;;1.70;;
7273;SDS011;3678;60.002;17.846;2022-09-23T08:16:08;5.00;;;2.20;;
7273;SDS011;3678;60.002;17.846;2022-09-23T08:18:36;5.93;;;2.83;;
7273;SDS011;3678;60.002;17.846;2022-09-23T08:21:03;4.40;;;2.03;;
7273;SDS011;3678;60.002;17.846;2022-09-23T08:23:30;2.80;;;1.70;;
7273;SDS011;3678;60.002;17.846;2022-09-23T08:25:59;7.13;;;2.30;;
7273;SDS011;3678;60.002;17.846;2022-09-23T08:28:26;3.07;;;1.70;;
7273;SDS011;3678;60.002;17.846;2022-09-23T08:30:54;4.47;;;2.33;;
7273;SDS011;3678;60.002;17.846;2022-09-23T08:33:22;2.67;;;1.80;;
7273;SDS011;3678;60.002;17.846;2022-09-23T08:35:49;5.43;;;2.13;;
7273;SDS011;3678;60.002;17.846;2022-09-23T08:38:16;4.87;;;2.10;;
7273;SDS011;3678;60.002;17.846;2022-09-23T08:40:45;4.00;;;1.90;;
7273;SDS011;3678;60.002;17.846;2022-09-23T08:43:13;1.90;;;1.60;;
7273;SDS011;3678;60.002;17.846;2022-09-23T08:45:43;3.80;;;1.85;;
7273;SDS011;3678;60.002;17.846;2022-09-23T08:48:13;2.47;;;1.80;;
7273;SDS011;3678;60.002;17.846;2022-09-23T08:50:42;3.97;;;2.20;;
7273;SDS011;3678;60.002;17.846;2022-09-23T08:53:12;3.53;;;2.10;;
7273;SDS011;3678;60.002;17.846;2022-09-23T08:55:41;3.00;;;1.77;;
7273;SDS011;3678;60.002;17.846;2022-09-23T08:58:16;5.17;;;2.50;;
7273;SDS011;3678;60.002;17.846;2022-09-23T09:00:48;3.03;;;2.03;;
7273;SDS011;3678;60.002;17.846;2022-09-23T09:03:20;3.77;;;2.17;;
7273;SDS011;3678;60.002;17.846;2022-09-23T09:05:48;4.13;;;1.73;;
7273;SDS011;3678;60.002;17.846;2022-09-23T09:08:16;3.60;;;1.73;;
7273;SDS011;3678;60.002;17.846;2022-09-23T09:10:48;3.90;;;1.73;;
7273;SDS011;3678;60.002;17.846;2022-09-23T09:13:19;5.23;;;1.83;;
7273;SDS011;3678;60.002;17.846;2022-09-23T09:15:50;2.07;;;1.47;;
7273;SDS011;3678;60.002;17.846;2022-09-23T09:18:23;3.43;;;1.67;;
7273;SDS011;3678;60.002;17.846;2022-09-23T09:20:53;2.83;;;2.03;;
7273;SDS011;3678;60.002;17.846;2022-09-23T09:23:24;2.50;;;1.70;;
7273;SDS011;3678;60.002;17.846;2022-09-23T09:25:53;2.63;;;1.70;;
7273;SDS011;3678;60.002;17.846;2022-09-23T09:28:22;3.10;;;1.77;;
7273;SDS011;3678;60.002;17.846;2022-09-23T09:30:56;3.50;;;1.88;;
7273;SDS011;3678;60.002;17.846;2022-09-23T09:33:29;5.70;;;2.03;;
7273;SDS011;3678;60.002;17.846;2022-09-23T09:36:04;5.40;;;1.80;;
7273;SDS011;3678;60.002;17.846;2022-09-23T09:38:33;2.87;;;1.77;;
7273;SDS011;3678;60.002;17.846;2022-09-23T09:41:06;2.77;;;1.70;;
7273;SDS011;3678;60.002;17.846;2022-09-23T09:43:36;5.33;;;1.77;;
7273;SDS011;3678;60.002;17.846;2022-09-23T09:46:05;4.20;;;1.80;;
7273;SDS011;3678;60.002;17.846;2022-09-23T09:48:44;5.23;;;1.83;;
7273;SDS011;3678;60.002;17.846;2022-09-23T09:51:18;4.07;;;1.87;;
7273;SDS011;3678;60.002;17.846;2022-09-23T09:53:46;2.90;;;1.63;;
7273;SDS011;3678;60.002;17.846;2022-09-23T09:56:16;3.77;;;1.83;;
7273;SDS011;3678;60.002;17.846;2022-09-23T09:58:45;3.47;;;2.00;;
7273;SDS011;3678;60.002;17.846;2022-09-23T10:01:17;4.25;;;1.88;;
7273;SDS011;3678;60.002;17.846;2022-09-23T10:03:46;4.30;;;1.90;;
7273;SDS011;3678;60.002;17.846;2022-09-23T10:06:16;4.73;;;1.77;;
7273;SDS011;3678;60.002;17.846;2022-09-23T10:08:48;4.30;;;1.83;;
7273;SDS011;3678;60.002;17.846;2022-09-23T10:11:17;4.43;;;1.90;;
7273;SDS011;3678;60.002;17.846;2022-09-23T10:13:59;4.60;;;1.80;;
7273;SDS011;3678;60.002;17.846;2022-09-23T10:16:27;3.80;;;1.77;;
7273;SDS011;3678;60.002;17.846;2022-09-23T10:18:57;4.13;;;1.53;;
7273;SDS011;3678;60.002;17.846;2022-09-23T10:21:24;4.80;;;1.90;;
7273;SDS011;3678;60.002;17.846;2022-09-23T10:23:58;3.17;;;1.83;;
7273;SDS011;3678;60.002;17.846;2022-09-23T10:26:27;2.00;;;1.60;;
7273;SDS011;3678;60.002;17.846;2022-09-23T10:28:56;5.40;;;2.27;;
7273;SDS011;3678;60.002;17.846;2022-09-23T10:31:24;3.67;;;2.00;;
7273;SDS011;3678;60.002;17.846;2022-09-23T10:33:52;3.17;;;1.87;;
7273;SDS011;3678;60.002;17.846;2022-09-23T10:36:22;3.17;;;1.77;;
7273;SDS011;3678;60.002;17.846;2022-09-23T10:38:51;4.60;;;1.80;;
7273;SDS011;3678;60.002;17.846;2022-09-23T10:41:23;2.43;;;1.57;;
7273;SDS011;3678;60.002;17.846;2022-09-23T10:44:16;3.90;;;1.63;;
7273;SDS011;3678;60.002;17.846;2022-09-23T10:47:06;3.85;;;1.90;;
7273;SDS011;3678;60.002;17.846;2022-09-23T10:49:45;3.57;;;1.90;;
7273;SDS011;3678;60.002;17.846;2022-09-23T10:52:22;3.93;;;1.90;;
7273;SDS011;3678;60.002;17.846;2022-09-23T10:54:55;3.80;;;1.60;;
7273;SDS011;3678;60.002;17.846;2022-09-23T10:57:27;4.00;;;1.50;;
7273;SDS011;3678;60.002;17.846;2022-09-23T11:05:37;2.73;;;1.43;;
7273;SDS011;3678;60.002;17.846;2022-09-23T11:08:13;2.13;;;1.40;;
7273;SDS011;3678;60.002;17.846;2022-09-23T11:10:47;3.83;;;1.60;;
7273;SDS011;3678;60.002;17.846;2022-09-23T11:13:22;5.07;;;1.40;;
7273;SDS011;3678;60.002;17.846;2022-09-23T11:15:55;1.57;;;1.30;;
7273;SDS011;3678;60.002;17.846;2022-09-23T11:18:30;1.30;;;1.17;;
7273;SDS011;3678;60.002;17.846;2022-09-23T11:21:01;1.83;;;1.13;;
7273;SDS011;3678;60.002;17.846;2022-09-23T11:23:37;2.60;;;1.00;;
7273;SDS011;3678;60.002;17.846;2022-09-23T11:26:09;3.47;;;1.13;;
7273;SDS011;3678;60.002;17.846;2022-09-23T11:28:51;3.60;;;1.47;;
7273;SDS011;3678;60.002;17.846;2022-09-23T11:31:25;4.28;;;1.35;;
7273;SDS011;3678;60.002;17.846;2022-09-23T11:33:59;1.70;;;1.20;;
7273;SDS011;3678;60.002;17.846;2022-09-23T11:36:33;3.03;;;1.20;;
7273;SDS011;3678;60.002;17.846;2022-09-23T11:39:05;3.40;;;1.30;;
7273;SDS011;3678;60.002;17.846;2022-09-23T11:41:36;3.07;;;1.20;;
7273;SDS011;3678;60.002;17.846;2022-09-23T11:44:05;2.63;;;1.20;;
7273;SDS011;3678;60.002;17.846;2022-09-23T11:46:33;3.03;;;1.20;;
7273;SDS011;3678;60.002;17.846;2022-09-23T11:49:03;3.27;;;1.30;;
7273;SDS011;3678;60.002;17.846;2022-09-23T11:51:35;3.87;;;1.43;;
7273;SDS011;3678;60.002;17.846;2022-09-23T11:54:08;2.60;;;1.20;;
7273;SDS011;3678;60.002;17.846;2022-09-23T11:56:39;1.87;;;1.37;;
7273;SDS011;3678;60.002;17.846;2022-09-23T11:59:09;2.10;;;0.97;;
7273;SDS011;3678;60.002;17.846;2022-09-23T12:01:41;2.97;;;1.33;;
7273;SDS011;3678;60.002;17.846;2022-09-23T12:04:11;0.98;;;0.85;;
7273;SDS011;3678;60.002;17.846;2022-09-23T12:06:43;2.30;;;1.33;;
7273;SDS011;3678;60.002;17.846;2022-09-23T12:09:15;2.10;;;1.10;;
7273;SDS011;3678;60.002;17.846;2022-09-23T12:11:47;3.20;;;1.10;;
7273;SDS011;3678;60.002;17.846;2022-09-23T12:14:19;1.60;;;1.00;;
7273;SDS011;3678;60.002;17.846;2022-09-23T12:16:51;2.08;;;0.90;;
7273;SDS011;3678;60.002;17.846;2022-09-23T12:19:27;1.73;;;1.25;;
7273;SDS011;3678;60.002;17.846;2022-09-23T12:22:03;2.37;;;1.10;;
7273;SDS011;3678;60.002;17.846;2022-09-23T12:24:48;1.90;;;0.90;;
7273;SDS011;3678;60.002;17.846;2022-09-23T12:27:23;2.40;;;1.17;;
7273;SDS011;3678;60.002;17.846;2022-09-23T12:29:53;2.37;;;1.10;;
7273;SDS011;3678;60.002;17.846;2022-09-23T12:32:22;1.50;;;1.07;;
7273;SDS011;3678;60.002;17.846;2022-09-23T12:34:50;2.27;;;1.00;;
7273;SDS011;3678;60.002;17.846;2022-09-23T12:37:22;1.87;;;1.00;;
7273;SDS011;3678;60.002;17.846;2022-09-23T12:39:51;2.67;;;1.10;;
7273;SDS011;3678;60.002;17.846;2022-09-23T12:42:19;3.17;;;1.20;;
7273;SDS011;3678;60.002;17.846;2022-09-23T12:44:47;2.70;;;1.00;;
7273;SDS011;3678;60.002;17.846;2022-09-23T12:52:48;2.37;;;1.37;;
7273;SDS011;3678;60.002;17.846;2022-09-23T12:57:59;2.37;;;1.20;;
7273;SDS011;3678;60.002;17.846;2022-09-23T13:00:26;2.60;;;1.10;;
7273;SDS011;3678;60.002;17.846;2022-09-23T13:02:55;1.90;;;1.00;;
7273;SDS011;3678;60.002;17.846;2022-09-23T13:05:45;2.27;;;1.17;;
7273;SDS011;3678;60.002;17.846;2022-09-23T13:08:30;2.07;;;1.07;;
7273;SDS011;3678;60.002;17.846;2022-09-23T13:10:59;2.80;;;1.30;;
7273;SDS011;3678;60.002;17.846;2022-09-23T13:13:29;3.07;;;1.30;;
7273;SDS011;3678;60.002;17.846;2022-09-23T13:16:08;2.10;;;1.10;;
7273;SDS011;3678;60.002;17.846;2022-09-23T13:24:17;2.10;;;1.03;;
7273;SDS011;3678;60.002;17.846;2022-09-23T13:26:44;2.90;;;1.30;;
7273;SDS011;3678;60.002;17.846;2022-09-23T13:29:15;1.90;;;1.10;;
7273;SDS011;3678;60.002;17.846;2022-09-23T13:31:43;5.80;;;1.40;;
7273;SDS011;3678;60.002;17.846;2022-09-23T13:34:11;3.20;;;1.13;;
7273;SDS011;3678;60.002;17.846;2022-09-23T13:36:42;2.50;;;1.40;;
7273;SDS011;3678;60.002;17.846;2022-09-23T13:39:13;1.53;;;1.10;;
7273;SDS011;3678;60.002;17.846;2022-09-23T13:41:41;5.80;;;1.30;;
7273;SDS011;3678;60.002;17.846;2022-09-23T13:44:11;2.00;;;1.10;;
7273;SDS011;3678;60.002;17.846;2022-09-23T13:46:43;2.07;;;1.30;;
7273;SDS011;3678;60.002;17.846;2022-09-23T13:49:17;3.50;;;1.20;;
7273;SDS011;3678;60.002;17.846;2022-09-23T13:51:45;4.03;;;1.40;;
7273;SDS011;3678;60.002;17.846;2022-09-23T13:54:25;3.00;;;1.57;;
7273;SDS011;3678;60.002;17.846;2022-09-23T13:56:53;1.53;;;1.00;;
7273;SDS011;3678;60.002;17.846;2022-09-23T13:59:23;2.30;;;1.37;;
7273;SDS011;3678;60.002;17.846;2022-09-23T14:02:01;2.10;;;1.30;;
7273;SDS011;3678;60.002;17.846;2022-09-23T14:04:29;3.50;;;1.30;;
7273;SDS011;3678;60.002;17.846;2022-09-23T14:06:56;3.93;;;1.20;;
7273;SDS011;3678;60.002;17.846;2022-09-23T14:09:24;1.63;;;1.13;;
7273;SDS011;3678;60.002;17.846;2022-09-23T14:11:51;3.63;;;1.20;;
7273;SDS011;3678;60.002;17.846;2022-09-23T14:14:19;2.87;;;1.30;;
7273;SDS011;3678;60.002;17.846;2022-09-23T14:16:47;2.95;;;1.30;;
7273;SDS011;3678;60.002;17.846;2022-09-23T14:19:17;3.87;;;1.30;;
7273;SDS011;3678;60.002;17.846;2022-09-23T14:21:46;2.63;;;1.50;;
7273;SDS011;3678;60.002;17.846;2022-09-23T14:24:14;3.27;;;1.50;;
7273;SDS011;3678;60.002;17.846;2022-09-23T14:26:43;2.27;;;1.17;;
7273;SDS011;3678;60.002;17.846;2022-09-23T14:29:12;3.17;;;1.40;;
7273;SDS011;3678;60.002;17.846;2022-09-23T14:31:50;2.73;;;1.17;;
7273;SDS011;3678;60.002;17.846;2022-09-23T14:34:39;2.13;;;1.30;;
7273;SDS011;3678;60.002;17.846;2022-09-23T14:37:15;5.63;;;1.30;;
7273;SDS011;3678;60.002;17.846;2022-09-23T14:40:03;3.03;;;1.53;;
7273;SDS011;3678;60.002;17.846;2022-09-23T14:42:36;5.50;;;1.23;;
7273;SDS011;3678;60.002;17.846;2022-09-23T14:45:05;3.47;;;1.27;;
7273;SDS011;3678;60.002;17.846;2022-09-23T14:47:33;3.53;;;1.30;;
7273;SDS011;3678;60.002;17.846;2022-09-23T14:50:02;4.30;;;1.47;;
7273;SDS011;3678;60.002;17.846;2022-09-23T14:52:47;3.50;;;1.33;;
7273;SDS011;3678;60.002;17.846;2022-09-23T14:55:15;2.50;;;1.30;;
7273;SDS011;3678;60.002;17.846;2022-09-23T14:57:42;3.13;;;1.40;;
7273;SDS011;3678;60.002;17.846;2022-09-23T15:00:13;6.70;;;1.30;;
7273;SDS011;3678;60.002;17.846;2022-09-23T15:02:42;5.03;;;1.70;;
7273;SDS011;3678;60.002;17.846;2022-09-23T15:05:15;6.57;;;1.40;;
7273;SDS011;3678;60.002;17.846;2022-09-23T15:07:48;4.63;;;1.43;;
7273;SDS011;3678;60.002;17.846;2022-09-23T15:10:17;3.97;;;1.57;;
7273;SDS011;3678;60.002;17.846;2022-09-23T15:12:47;5.07;;;1.33;;
7273;SDS011;3678;60.002;17.846;2022-09-23T15:15:15;3.33;;;1.27;;
7273;SDS011;3678;60.002;17.846;2022-09-23T15:17:42;3.13;;;1.30;;
7273;SDS011;3678;60.002;17.846;2022-09-23T15:20:17;4.20;;;1.57;;
7273;SDS011;3678;60.002;17.846;2022-09-23T15:22:46;5.37;;;1.80;;
7273;SDS011;3678;60.002;17.846;2022-09-23T15:25:15;3.63;;;1.53;;
7273;SDS011;3678;60.002;17.846;2022-09-23T15:27:54;3.13;;;1.47;;
7273;SDS011;3678;60.002;17.846;2022-09-23T15:30:21;2.27;;;1.30;;
7273;SDS011;3678;60.002;17.846;2022-09-23T15:32:49;5.97;;;1.57;;
7273;SDS011;3678;60.002;17.846;2022-09-23T15:35:18;4.07;;;1.20;;
7273;SDS011;3678;60.002;17.846;2022-09-23T15:37:46;3.73;;;1.53;;
7273;SDS011;3678;60.002;17.846;2022-09-23T15:40:18;3.50;;;1.47;;
7273;SDS011;3678;60.002;17.846;2022-09-23T15:42:46;1.87;;;1.10;;